Time;durP1;ratioP1;P1;durP2;ratioP2;P2;SDS_P1;SDS_P2;PMS_P1;PMS_P2;Temp;Humidity;BMP_temperature;BMP_pressure;BME280_temperature;BME280_humidity;BME280_pressure;Samples;Min_cycle;Max_cycle;Signal;HPM_P1;HPM_P2
2023/04/04 00:01:25;;;;;;;1.40;1.30;;;19.10;50.30;;;;;;4971022;28;20226;-67
2023/04/04 00:03:51;;;;;;;2.03;1.33;;;19.10;50.30;;;;;;4969782;28;20185;-66
2023/04/04 00:06:19;;;;;;;1.58;1.08;;;19.10;50.30;;;;;;4972873;28;20207;-66
2023/04/04 00:08:45;;;;;;;1.60;1.50;;;19.10;50.90;;;;;;4979593;28;20277;-66
2023/04/04 00:11:12;;;;;;;1.20;1.10;;;19.20;50.40;;;;;;4955100;28;20316;-66
2023/04/04 00:13:39;;;;;;;1.88;1.33;;;19.20;50.40;;;;;;4972896;28;20251;-67
2023/04/04 00:16:05;;;;;;;2.00;1.20;;;19.20;50.40;;;;;;4975454;28;20189;-66
2023/04/04 00:18:31;;;;;;;2.10;1.17;;;19.10;50.30;;;;;;4974971;28;20216;-66
2023/04/04 00:20:58;;;;;;;1.40;1.20;;;19.10;50.30;;;;;;4978919;28;20225;-66
2023/04/04 00:23:24;;;;;;;1.30;1.20;;;19.10;50.30;;;;;;4978834;28;20523;-66
2023/04/04 00:25:51;;;;;;;1.20;1.10;;;19.10;50.30;;;;;;4958784;28;20213;-65
2023/04/04 00:28:19;;;;;;;1.20;1.10;;;19.20;50.30;;;;;;4975069;28;20197;-66
2023/04/04 00:30:45;;;;;;;1.42;1.13;;;19.10;50.20;;;;;;4974598;28;20324;-66
2023/04/04 00:33:12;;;;;;;1.23;1.13;;;19.10;50.20;;;;;;4983210;28;20201;-67
2023/04/04 00:35:38;;;;;;;1.25;1.13;;;19.10;50.20;;;;;;4958944;28;20244;-66
2023/04/04 00:38:04;;;;;;;1.25;1.15;;;19.10;50.20;;;;;;4955802;28;20194;-66
2023/04/04 00:40:30;;;;;;;1.63;1.33;;;19.20;50.30;;;;;;4971417;28;20316;-66
2023/04/04 00:42:59;;;;;;;1.10;1.00;;;19.10;50.20;;;;;;4955571;28;20205;-67
2023/04/04 00:45:26;;;;;;;1.70;1.40;;;19.10;50.20;;;;;;4954921;28;20182;-67
2023/04/04 00:47:54;;;;;;;1.17;1.10;;;19.10;50.20;;;;;;4954875;28;20186;-66
2023/04/04 00:50:19;;;;;;;1.00;0.90;;;19.10;50.20;;;;;;4992963;28;20196;-66
2023/04/04 00:52:45;;;;;;;1.92;1.33;;;19.10;50.20;;;;;;4958293;28;20186;-66
2023/04/04 00:55:11;;;;;;;1.50;1.20;;;19.10;50.20;;;;;;4971318;28;20221;-67
2023/04/04 00:57:37;;;;;;;1.70;1.10;;;19.10;50.20;;;;;;4962178;28;20225;-67
2023/04/04 01:00:05;;;;;;;1.02;0.98;;;19.20;50.30;;;;;;4962686;28;20208;-65
2023/04/04 01:02:31;;;;;;;1.77;1.35;;;19.10;50.20;;;;;;4969135;28;20192;-66
2023/04/04 01:04:57;;;;;;;1.30;1.20;;;19.10;50.20;;;;;;4974568;28;20190;-67
2023/04/04 01:07:23;;;;;;;1.63;1.20;;;19.10;50.20;;;;;;4970924;28;20194;-67
2023/04/04 01:09:50;;;;;;;1.48;1.38;;;19.10;50.20;;;;;;4981555;28;20193;-66
2023/04/04 01:12:17;;;;;;;2.13;1.35;;;19.10;50.60;;;;;;4957766;28;20220;-67
2023/04/04 01:14:43;;;;;;;1.20;1.10;;;19.10;50.20;;;;;;4958292;28;20193;-67
2023/04/04 01:17:09;;;;;;;1.40;1.27;;;19.10;50.20;;;;;;4979281;28;20193;-67
2023/04/04 01:19:43;;;;;;;1.35;1.20;;;19.10;50.20;;;;;;4957884;28;20190;-66
2023/04/04 01:22:15;;;;;;;1.77;1.17;;;19.20;50.20;;;;;;4958628;28;20217;-66
2023/04/04 01:24:45;;;;;;;1.48;1.30;;;19.10;50.20;;;;;;4955379;28;20278;-66
2023/04/04 01:27:12;;;;;;;1.55;1.17;;;19.10;50.20;;;;;;4957876;28;20236;-66
2023/04/04 01:29:44;;;;;;;1.92;1.02;;;19.20;50.30;;;;;;4973966;28;20241;-66
2023/04/04 01:32:20;;;;;;;1.33;1.02;;;19.20;50.20;;;;;;4973470;28;20224;-66
2023/04/04 01:35:12;;;;;;;1.45;1.35;;;19.10;50.20;;;;;;4957901;28;20276;-66
2023/04/04 01:37:55;;;;;;;1.48;1.30;;;19.10;50.20;;;;;;4971391;28;20186;-67
2023/04/04 01:40:33;;;;;;;1.25;1.08;;;19.10;50.20;;;;;;4986000;28;20225;-66
2023/04/04 01:43:00;;;;;;;1.17;1.15;;;19.10;50.20;;;;;;4973583;28;20186;-67
2023/04/04 01:45:29;;;;;;;1.20;1.10;;;19.10;50.10;;;;;;4973584;28;20232;-66
2023/04/04 01:47:57;;;;;;;1.10;1.00;;;19.10;50.00;;;;;;4960939;28;20191;-66
2023/04/04 01:50:23;;;;;;;2.55;1.30;;;19.10;50.20;;;;;;4977599;28;20189;-67
2023/04/04 01:52:49;;;;;;;1.38;1.20;;;19.10;50.10;;;;;;4981738;28;20206;-67
2023/04/04 01:55:15;;;;;;;1.40;1.23;;;19.10;50.00;;;;;;4981542;28;20594;-66
2023/04/04 01:57:41;;;;;;;1.52;1.30;;;19.10;50.10;;;;;;4981565;28;20232;-67
2023/04/04 02:00:08;;;;;;;1.20;1.10;;;19.10;50.00;;;;;;4981022;28;20214;-67
2023/04/04 02:02:41;;;;;;;1.30;1.20;;;19.10;50.00;;;;;;4975619;28;20229;-67
2023/04/04 02:05:09;;;;;;;1.38;1.20;;;19.10;50.00;;;;;;4984989;28;20189;-67
2023/04/04 02:07:34;;;;;;;1.55;1.15;;;19.10;50.10;;;;;;4981298;28;20245;-67
2023/04/04 02:10:02;;;;;;;1.65;1.10;;;19.10;50.60;;;;;;4953896;29;20288;-66
2023/04/04 02:12:28;;;;;;;1.10;1.00;;;19.10;50.00;;;;;;4969022;28;20345;-66
2023/04/04 02:14:53;;;;;;;1.10;1.00;;;19.10;50.10;;;;;;4972827;28;20193;-66
2023/04/04 02:17:19;;;;;;;1.17;1.10;;;19.10;50.00;;;;;;4953630;28;20194;-67
2023/04/04 02:19:45;;;;;;;1.20;1.10;;;19.10;50.00;;;;;;4954930;28;20185;-66
2023/04/04 02:22:11;;;;;;;1.08;1.08;;;19.10;50.00;;;;;;4973773;28;20221;-66
2023/04/04 02:24:37;;;;;;;1.48;1.27;;;19.10;50.00;;;;;;4981100;28;20190;-66
2023/04/04 02:27:03;;;;;;;1.30;1.20;;;19.10;50.00;;;;;;4974001;28;20269;-66
2023/04/04 02:29:29;;;;;;;1.30;1.20;;;19.10;50.00;;;;;;4956521;28;20190;-66
2023/04/04 02:31:55;;;;;;;2.03;1.58;;;19.10;50.00;;;;;;4975084;28;20204;-67
2023/04/04 02:34:21;;;;;;;1.00;1.00;;;19.10;50.00;;;;;;4977886;28;20193;-66
2023/04/04 02:36:50;;;;;;;1.10;1.00;;;19.10;50.00;;;;;;4971992;28;20185;-66
2023/04/04 02:39:16;;;;;;;1.45;1.00;;;19.10;50.00;;;;;;4969351;28;20550;-66
2023/04/04 02:41:42;;;;;;;1.52;1.27;;;19.10;50.00;;;;;;4961629;28;20263;-66
2023/04/04 02:44:08;;;;;;;1.35;1.08;;;19.10;49.90;;;;;;4956530;28;20672;-66
2023/04/04 02:46:35;;;;;;;1.42;1.20;;;19.10;49.90;;;;;;4975350;28;20248;-67
2023/04/04 02:49:04;;;;;;;1.83;1.02;;;19.10;49.90;;;;;;4957103;28;20194;-66
2023/04/04 02:51:32;;;;;;;1.17;1.02;;;19.10;49.90;;;;;;4956160;28;20224;-67
2023/04/04 02:53:59;;;;;;;1.30;1.20;;;19.10;49.90;;;;;;4980445;28;20661;-67
2023/04/04 02:56:32;;;;;;;1.60;1.33;;;19.10;49.90;;;;;;4968254;28;20194;-66
2023/04/04 02:58:58;;;;;;;1.88;1.33;;;19.10;49.90;;;;;;4971489;28;20231;-66
2023/04/04 03:01:24;;;;;;;1.08;1.05;;;19.10;50.00;;;;;;4971739;28;20229;-66
2023/04/04 03:03:50;;;;;;;1.60;1.30;;;19.10;50.00;;;;;;4955836;28;20209;-66
2023/04/04 03:06:17;;;;;;;1.88;1.00;;;19.10;49.90;;;;;;4972221;28;20229;-66
2023/04/04 03:08:42;;;;;;;1.70;1.38;;;19.10;50.00;;;;;;4972243;28;20193;-66
2023/04/04 03:11:09;;;;;;;1.30;1.00;;;19.10;50.00;;;;;;4971698;28;20723;-66
2023/04/04 03:13:35;;;;;;;1.40;1.27;;;19.10;49.90;;;;;;4971865;28;20305;-66
2023/04/04 03:16:05;;;;;;;1.35;1.23;;;19.10;50.00;;;;;;4960781;28;20202;-66
2023/04/04 03:18:41;;;;;;;2.03;1.00;;;19.10;50.00;;;;;;4966382;28;20221;-67
2023/04/04 03:21:06;;;;;;;1.52;1.05;;;19.10;49.90;;;;;;4972702;28;20700;-67
2023/04/04 03:23:32;;;;;;;1.20;1.10;;;19.10;49.90;;;;;;4971895;28;20177;-66
2023/04/04 03:25:58;;;;;;;1.35;1.00;;;19.10;49.90;;;;;;4971847;28;20182;-66
2023/04/04 03:28:25;;;;;;;1.10;1.10;;;19.10;49.90;;;;;;4971872;28;20199;-66
2023/04/04 03:30:50;;;;;;;1.23;1.10;;;19.10;50.00;;;;;;4955332;28;20244;-67
2023/04/04 03:33:17;;;;;;;1.50;1.35;;;19.10;49.90;;;;;;4971906;28;20193;-66
2023/04/04 03:35:43;;;;;;;1.92;1.40;;;19.10;49.90;;;;;;4955715;28;20200;-67
2023/04/04 03:38:09;;;;;;;1.35;1.25;;;19.10;49.90;;;;;;4972879;28;20193;-66
2023/04/04 03:40:35;;;;;;;1.25;1.15;;;19.10;49.90;;;;;;4971192;28;20260;-67
2023/04/04 03:43:09;;;;;;;1.52;1.00;;;19.10;49.90;;;;;;4956458;28;20217;-67
2023/04/04 03:45:35;;;;;;;1.10;1.05;;;19.10;49.90;;;;;;4968265;28;20230;-66
2023/04/04 03:48:01;;;;;;;1.15;0.90;;;19.10;49.90;;;;;;4972758;28;20236;-66
2023/04/04 03:50:29;;;;;;;1.52;1.20;;;19.10;49.90;;;;;;4956263;28;20214;-67
2023/04/04 03:52:57;;;;;;;1.23;1.10;;;19.10;49.90;;;;;;4981365;28;20193;-66
2023/04/04 03:55:25;;;;;;;1.20;1.10;;;19.10;49.90;;;;;;4959871;28;20196;-66
2023/04/04 03:57:51;;;;;;;1.15;1.02;;;19.10;49.90;;;;;;4973755;28;20194;-67
2023/04/04 04:00:18;;;;;;;1.10;1.00;;;19.10;49.90;;;;;;4989510;28;20213;-67
2023/04/04 04:02:45;;;;;;;0.98;0.95;;;19.10;49.90;;;;;;4975150;28;20181;-67
2023/04/04 04:05:10;;;;;;;1.40;1.30;;;19.10;49.90;;;;;;4959049;28;20197;-67
2023/04/04 04:07:36;;;;;;;1.92;1.38;;;19.10;49.90;;;;;;4959349;28;20181;-66
2023/04/04 04:10:04;;;;;;;1.27;1.00;;;19.10;49.90;;;;;;4966692;28;20281;-67
2023/04/04 04:12:30;;;;;;;1.45;0.88;;;19.10;49.90;;;;;;4958905;28;20244;-66
2023/04/04 04:14:55;;;;;;;1.55;1.45;;;19.10;49.90;;;;;;4975086;28;20279;-66
2023/04/04 04:17:21;;;;;;;1.42;1.20;;;19.10;49.80;;;;;;4959298;28;20243;-66
2023/04/04 04:19:47;;;;;;;1.08;0.90;;;19.10;49.80;;;;;;4956418;28;20533;-67
2023/04/04 04:22:14;;;;;;;1.88;1.25;;;19.10;49.80;;;;;;4983209;28;20742;-67
2023/04/04 04:24:40;;;;;;;1.23;1.13;;;19.10;49.80;;;;;;4975064;28;20270;-67
2023/04/04 04:27:06;;;;;;;1.58;1.17;;;19.10;49.90;;;;;;4982999;28;20192;-66
2023/04/04 04:29:32;;;;;;;1.50;1.00;;;19.10;49.80;;;;;;4956040;28;20213;-66
2023/04/04 04:31:58;;;;;;;0.98;0.98;;;19.10;49.80;;;;;;4974744;28;20692;-66
2023/04/04 04:34:28;;;;;;;1.05;1.05;;;19.10;49.80;;;;;;4955587;28;20194;-66
2023/04/04 04:36:58;;;;;;;0.88;0.88;;;19.10;49.80;;;;;;4973855;28;20185;-67
2023/04/04 04:39:26;;;;;;;1.10;1.00;;;19.10;49.80;;;;;;4991055;28;20189;-66
2023/04/04 04:42:24;;;;;;;1.20;1.10;;;19.10;49.80;;;;;;4958113;28;20220;-67
2023/04/04 04:44:55;;;;;;;1.77;1.10;;;19.10;49.90;;;;;;4974573;28;20208;-66
2023/04/04 04:47:21;;;;;;;1.10;1.00;;;19.10;49.80;;;;;;4971108;28;20223;-66
2023/04/04 04:49:48;;;;;;;1.25;1.15;;;19.10;49.80;;;;;;4980073;28;20181;-66
2023/04/04 04:52:18;;;;;;;1.55;1.30;;;19.10;49.80;;;;;;4974538;28;20285;-67
2023/04/04 04:54:45;;;;;;;0.98;0.98;;;19.10;49.80;;;;;;4958268;28;20197;-66
2023/04/04 04:57:11;;;;;;;1.33;1.15;;;19.10;49.80;;;;;;4954991;28;20199;-66
2023/04/04 04:59:40;;;;;;;1.45;1.10;;;19.10;49.70;;;;;;4970428;28;20193;-65
2023/04/04 05:02:08;;;;;;;1.20;1.10;;;19.10;49.70;;;;;;4982491;28;20218;-65
2023/04/04 05:04:43;;;;;;;1.20;1.10;;;19.10;49.80;;;;;;4955771;28;20186;-66
2023/04/04 05:07:11;;;;;;;1.45;1.10;;;19.10;49.70;;;;;;4958422;28;20244;-67
2023/04/04 05:09:37;;;;;;;1.30;1.20;;;19.10;49.80;;;;;;4958338;28;20193;-67
2023/04/04 05:12:04;;;;;;;1.20;1.10;;;19.10;49.80;;;;;;4973800;28;20217;-66
2023/04/04 05:14:38;;;;;;;1.30;1.20;;;19.10;49.70;;;;;;4975325;28;20208;-66
2023/04/04 05:17:04;;;;;;;1.30;1.20;;;19.10;49.70;;;;;;4957357;28;20201;-66
2023/04/04 05:19:31;;;;;;;1.23;1.13;;;19.10;49.80;;;;;;4958161;28;20252;-67
2023/04/04 05:21:58;;;;;;;1.20;1.00;;;19.10;49.80;;;;;;4957832;28;20228;-67
2023/04/04 05:24:31;;;;;;;1.20;1.10;;;19.10;49.80;;;;;;4970835;28;20236;-67
2023/04/04 05:26:58;;;;;;;1.48;1.08;;;19.10;49.70;;;;;;4955241;28;20190;-67
2023/04/04 05:29:24;;;;;;;1.15;1.05;;;19.10;49.70;;;;;;4982375;28;20182;-66
2023/04/04 05:31:51;;;;;;;1.20;1.10;;;19.10;49.70;;;;;;4957396;28;20585;-67
2023/04/04 05:34:20;;;;;;;1.70;1.10;;;19.10;49.70;;;;;;4958195;28;20194;-67
2023/04/04 05:36:48;;;;;;;1.30;1.20;;;19.10;49.60;;;;;;4971030;28;20194;-66
2023/04/04 05:39:14;;;;;;;1.20;1.08;;;19.10;49.60;;;;;;4957756;28;20186;-67
2023/04/04 05:41:50;;;;;;;0.90;0.85;;;19.10;49.60;;;;;;4958759;28;20211;-67
2023/04/04 05:44:18;;;;;;;1.45;1.17;;;19.10;49.60;;;;;;4970746;28;20195;-67
2023/04/04 05:46:43;;;;;;;1.35;1.25;;;19.10;49.60;;;;;;4951103;28;20187;-66
2023/04/04 05:49:09;;;;;;;1.30;1.20;;;19.10;49.60;;;;;;4997315;28;20185;-67
2023/04/04 05:51:39;;;;;;;1.30;1.10;;;19.10;50.20;;;;;;4984519;28;20220;-67
2023/04/04 05:54:13;;;;;;;1.27;1.17;;;19.10;49.60;;;;;;4974656;28;20207;-67
2023/04/04 05:56:40;;;;;;;1.25;1.15;;;19.10;49.60;;;;;;4957030;28;20638;-67
2023/04/04 05:59:13;;;;;;;1.73;1.13;;;19.10;49.60;;;;;;4965508;28;20196;-67
2023/04/04 06:01:50;;;;;;;1.50;1.15;;;19.10;49.60;;;;;;4957895;28;20300;-67
2023/04/04 06:04:16;;;;;;;1.70;1.25;;;19.10;49.50;;;;;;4973263;28;20325;-67
2023/04/04 06:06:45;;;;;;;1.10;1.00;;;19.10;49.60;;;;;;4977690;28;20210;-66
2023/04/04 06:09:11;;;;;;;1.10;1.00;;;19.10;49.50;;;;;;4988796;28;20264;-67
2023/04/04 06:11:37;;;;;;;1.92;1.20;;;19.10;49.50;;;;;;4955843;28;20237;-67
2023/04/04 06:14:07;;;;;;;1.58;1.25;;;19.20;49.50;;;;;;4957481;28;20204;-67
2023/04/04 06:16:35;;;;;;;1.30;1.20;;;19.20;49.50;;;;;;4954003;28;20190;-67
2023/04/04 06:19:00;;;;;;;1.80;1.20;;;19.20;49.50;;;;;;4973031;28;20208;-67
2023/04/04 06:21:26;;;;;;;1.45;1.05;;;19.20;49.40;;;;;;4953179;28;20684;-66
2023/04/04 06:23:52;;;;;;;1.27;1.17;;;19.20;49.50;;;;;;4967511;28;20241;-67
2023/04/04 06:26:19;;;;;;;1.15;1.05;;;19.20;49.40;;;;;;4960744;28;20184;-67
2023/04/04 06:28:49;;;;;;;1.17;1.08;;;19.20;49.40;;;;;;4976744;28;20192;-67
2023/04/04 06:31:18;;;;;;;1.27;1.17;;;19.20;49.30;;;;;;4961691;28;20209;-67
2023/04/04 06:33:46;;;;;;;1.10;1.10;;;19.20;49.40;;;;;;4953569;28;20201;-66
2023/04/04 06:36:14;;;;;;;1.50;1.30;;;19.30;49.40;;;;;;4957070;28;20194;-66
2023/04/04 06:38:40;;;;;;;1.23;1.10;;;19.20;49.20;;;;;;4973675;28;20563;-67
2023/04/04 06:41:14;;;;;;;1.45;1.35;;;19.30;49.30;;;;;;4972116;28;20734;-67
2023/04/04 06:43:40;;;;;;;2.17;1.30;;;19.30;49.30;;;;;;4956768;28;20189;-67
2023/04/04 06:46:06;;;;;;;1.42;1.20;;;19.30;49.20;;;;;;4972313;28;20272;-67
2023/04/04 06:48:32;;;;;;;1.85;1.35;;;19.40;49.20;;;;;;4956138;28;20216;-67
2023/04/04 06:50:58;;;;;;;1.30;1.20;;;19.40;49.10;;;;;;4955981;28;20689;-66
2023/04/04 06:53:25;;;;;;;1.35;1.23;;;19.40;49.10;;;;;;4980426;28;20253;-67
2023/04/04 06:55:52;;;;;;;1.58;1.30;;;19.40;49.10;;;;;;4972223;28;20275;-67
2023/04/04 06:58:18;;;;;;;2.40;1.30;;;19.40;49.00;;;;;;4969435;28;20273;-66
2023/04/04 07:00:43;;;;;;;1.65;1.30;;;19.40;49.00;;;;;;4948541;28;20232;-66
2023/04/04 07:03:09;;;;;;;1.48;1.25;;;19.40;48.90;;;;;;4971161;28;20207;-65
2023/04/04 07:05:38;;;;;;;2.05;1.50;;;19.50;49.00;;;;;;4969031;28;20194;-67
2023/04/04 07:08:05;;;;;;;3.53;1.50;;;19.50;49.00;;;;;;4978530;28;20203;-67
2023/04/04 07:10:31;;;;;;;1.38;1.27;;;19.50;48.90;;;;;;4968809;28;20213;-67
2023/04/04 07:12:57;;;;;;;2.17;1.45;;;19.50;48.80;;;;;;4954373;28;20186;-67
2023/04/04 07:15:22;;;;;;;1.50;1.40;;;19.50;48.80;;;;;;4979211;28;20193;-67
2023/04/04 07:17:48;;;;;;;2.38;1.40;;;19.60;48.80;;;;;;4971966;28;20192;-67
2023/04/04 07:20:14;;;;;;;1.88;1.45;;;19.60;48.70;;;;;;4955539;28;20213;-66
2023/04/04 07:22:41;;;;;;;3.10;1.58;;;19.60;48.70;;;;;;4956148;28;20220;-66
2023/04/04 07:25:08;;;;;;;1.65;1.55;;;19.60;48.70;;;;;;4973033;28;20201;-67
2023/04/04 07:27:34;;;;;;;1.40;1.30;;;19.60;48.70;;;;;;4971910;28;20197;-67
2023/04/04 07:30:00;;;;;;;1.67;1.52;;;19.60;48.70;;;;;;4971662;28;20189;-67
2023/04/04 07:32:28;;;;;;;1.30;1.20;;;19.60;48.70;;;;;;4971587;28;20665;-67
2023/04/04 07:34:54;;;;;;;1.67;1.27;;;19.70;48.80;;;;;;4955644;28;20332;-67
2023/04/04 07:37:20;;;;;;;2.58;1.33;;;19.70;48.70;;;;;;4955914;28;20216;-66
2023/04/04 07:39:48;;;;;;;1.55;1.45;;;19.70;48.70;;;;;;4972986;28;20197;-66
2023/04/04 07:42:15;;;;;;;1.58;1.30;;;19.70;48.70;;;;;;4971774;28;20205;-66
2023/04/04 07:44:41;;;;;;;2.20;1.50;;;19.80;48.80;;;;;;4955619;28;20184;-67
2023/04/04 07:47:07;;;;;;;1.48;1.38;;;19.70;48.70;;;;;;4971068;28;20190;-66
2023/04/04 07:49:33;;;;;;;1.70;1.60;;;19.80;48.70;;;;;;4984552;28;20209;-67
2023/04/04 07:51:58;;;;;;;1.80;1.45;;;19.80;48.60;;;;;;4959715;28;20209;-67
2023/04/04 07:54:24;;;;;;;2.05;1.63;;;19.80;48.60;;;;;;4971923;28;20189;-67
2023/04/04 07:56:50;;;;;;;1.83;1.42;;;19.80;48.60;;;;;;4971186;28;20185;-67
2023/04/04 07:59:17;;;;;;;2.00;1.50;;;19.80;48.50;;;;;;4971133;28;20613;-67
2023/04/04 08:01:43;;;;;;;2.10;1.60;;;19.80;48.50;;;;;;4951960;28;20224;-66
2023/04/04 08:04:09;;;;;;;1.50;1.40;;;19.80;48.40;;;;;;4969141;28;20222;-67
2023/04/04 08:06:35;;;;;;;1.77;1.10;;;19.90;48.50;;;;;;4968464;28;20191;-67
2023/04/04 08:09:02;;;;;;;2.10;1.50;;;19.90;48.50;;;;;;4966923;28;20662;-67
2023/04/04 08:11:27;;;;;;;1.60;1.50;;;19.90;48.40;;;;;;4959666;28;20204;-67
2023/04/04 08:13:53;;;;;;;1.70;1.13;;;19.90;48.50;;;;;;4959058;28;20194;-66
2023/04/04 08:16:19;;;;;;;1.75;1.48;;;19.90;48.40;;;;;;4972467;28;20190;-66
2023/04/04 08:18:45;;;;;;;1.83;1.38;;;19.90;48.40;;;;;;4952299;28;20204;-67
2023/04/04 08:21:11;;;;;;;2.10;1.77;;;19.90;48.40;;;;;;4953788;28;20213;-66
2023/04/04 08:23:37;;;;;;;1.73;1.48;;;19.90;48.40;;;;;;4977193;28;20201;-67
2023/04/04 08:26:03;;;;;;;2.05;1.60;;;19.90;48.40;;;;;;4972405;28;20198;-67
2023/04/04 08:28:29;;;;;;;2.00;1.23;;;19.90;48.40;;;;;;4955700;28;20182;-67
2023/04/04 08:30:54;;;;;;;2.00;1.35;;;19.90;48.50;;;;;;4979304;28;20509;-68
2023/04/04 08:33:23;;;;;;;1.70;1.48;;;19.90;48.40;;;;;;4955820;28;20189;-67
2023/04/04 08:35:49;;;;;;;2.30;1.67;;;19.90;48.40;;;;;;4974519;28;20194;-66
2023/04/04 08:38:15;;;;;;;1.42;1.33;;;19.90;48.50;;;;;;4958577;28;20200;-67
2023/04/04 08:40:46;;;;;;;1.17;1.15;;;19.90;48.50;;;;;;4975638;28;20220;-66
2023/04/04 08:43:14;;;;;;;2.80;1.40;;;19.90;48.40;;;;;;4974644;28;20205;-66
2023/04/04 08:45:43;;;;;;;1.63;1.52;;;19.90;48.50;;;;;;4974842;28;20241;-66
2023/04/04 08:48:16;;;;;;;1.63;1.52;;;19.90;48.50;;;;;;4958268;28;20189;-66
2023/04/04 08:50:43;;;;;;;1.60;1.50;;;19.90;48.40;;;;;;4974408;28;20209;-67
2023/04/04 08:53:10;;;;;;;1.55;1.40;;;19.90;48.40;;;;;;4974904;28;20200;-66
2023/04/04 08:55:38;;;;;;;2.28;1.35;;;19.90;48.40;;;;;;4958898;28;20649;-67
2023/04/04 08:58:04;;;;;;;2.15;1.38;;;19.90;48.30;;;;;;4958426;28;20615;-67
2023/04/04 09:00:30;;;;;;;1.33;1.23;;;19.90;48.30;;;;;;4975809;28;20740;-67
2023/04/04 09:03:13;;;;;;;1.50;1.40;;;19.90;48.20;;;;;;4975652;28;20190;-66
2023/04/04 09:05:40;;;;;;;1.98;1.30;;;19.90;48.20;;;;;;4975646;28;20236;-67
2023/04/04 09:08:06;;;;;;;1.70;1.35;;;19.90;48.20;;;;;;4956367;28;20190;-67
2023/04/04 09:10:33;;;;;;;1.98;1.40;;;19.90;48.20;;;;;;4958137;28;20239;-67
2023/04/04 09:13:01;;;;;;;1.55;1.40;;;19.90;48.20;;;;;;4974282;28;20193;-65
2023/04/04 09:15:28;;;;;;;1.40;1.23;;;20.00;48.30;;;;;;4982664;28;20272;-67
2023/04/04 09:17:54;;;;;;;2.17;1.15;;;20.00;48.30;;;;;;4974246;28;20186;-67
2023/04/04 09:20:39;;;;;;;1.60;1.40;;;20.00;48.30;;;;;;4973684;28;20212;-67
2023/04/04 09:23:19;;;;;;;1.70;1.40;;;20.00;48.20;;;;;;4966282;28;20344;-67
2023/04/04 09:25:51;;;;;;;1.52;1.42;;;20.00;48.20;;;;;;4975461;28;20197;-67
2023/04/04 09:28:18;;;;;;;3.33;1.40;;;20.00;48.10;;;;;;4974013;28;20235;-67
2023/04/04 09:30:47;;;;;;;1.45;1.35;;;19.90;48.10;;;;;;4974860;28;20210;-66
2023/04/04 09:33:14;;;;;;;1.73;1.63;;;20.00;48.20;;;;;;4957716;28;20197;-67
2023/04/04 09:35:58;;;;;;;1.65;1.40;;;20.00;48.20;;;;;;4954800;28;20182;-66
2023/04/04 09:38:27;;;;;;;2.20;1.30;;;20.00;48.20;;;;;;4957613;28;20185;-67
2023/04/04 09:40:54;;;;;;;2.33;1.55;;;19.90;48.20;;;;;;4957312;28;20616;-66
2023/04/04 09:43:23;;;;;;;1.40;1.30;;;19.90;48.20;;;;;;4957392;28;20193;-67
2023/04/04 09:45:50;;;;;;;1.92;1.60;;;20.00;48.90;;;;;;4972813;28;20190;-66
2023/04/04 09:48:31;;;;;;;1.45;1.33;;;20.00;48.20;;;;;;4972491;28;20191;-67
2023/04/04 09:50:58;;;;;;;1.63;1.38;;;19.90;48.20;;;;;;4957214;28;20213;-66
2023/04/04 09:53:24;;;;;;;1.95;1.50;;;19.90;48.10;;;;;;4974329;28;20193;-66
2023/04/04 09:55:52;;;;;;;2.03;1.13;;;20.00;48.10;;;;;;4973066;28;20196;-67
2023/04/04 09:58:27;;;;;;;1.67;1.33;;;19.90;48.00;;;;;;4957179;28;20200;-66
2023/04/04 10:00:56;;;;;;;1.70;1.42;;;20.00;48.10;;;;;;4973048;28;20239;-66
2023/04/04 10:03:26;;;;;;;1.98;1.50;;;20.00;48.10;;;;;;4974531;28;20192;-66
2023/04/04 10:06:06;;;;;;;1.50;1.20;;;19.90;48.00;;;;;;4970165;28;20195;-65
2023/04/04 10:08:32;;;;;;;1.27;1.15;;;20.00;48.10;;;;;;4970999;28;20292;-67
2023/04/04 10:11:04;;;;;;;1.73;1.27;;;19.90;48.00;;;;;;4965212;28;20272;-66
2023/04/04 10:13:34;;;;;;;2.42;1.40;;;19.90;48.00;;;;;;4957078;28;20194;-65
2023/04/04 10:16:02;;;;;;;1.40;1.30;;;19.90;48.00;;;;;;4973202;28;20205;-65
2023/04/04 10:18:31;;;;;;;2.80;1.38;;;20.00;48.10;;;;;;4973033;28;20277;-65
2023/04/04 10:21:01;;;;;;;1.70;1.60;;;19.90;48.00;;;;;;4980782;28;20260;-67
2023/04/04 10:23:27;;;;;;;1.58;1.23;;;19.90;48.10;;;;;;4981340;28;20182;-66
2023/04/04 10:25:58;;;;;;;1.65;1.27;;;19.90;48.00;;;;;;4953710;29;20241;-66
2023/04/04 10:28:26;;;;;;;1.42;1.33;;;20.00;48.10;;;;;;4988524;28;20736;-66
2023/04/04 10:31:10;;;;;;;1.52;1.42;;;19.90;48.00;;;;;;4953394;28;20659;-65
2023/04/04 10:34:08;;;;;;;1.35;1.15;;;19.90;48.00;;;;;;4962826;28;20205;-65
2023/04/04 10:36:46;;;;;;;1.67;1.50;;;20.00;48.10;;;;;;4946901;28;20254;-66
2023/04/04 10:39:25;;;;;;;1.40;1.30;;;19.90;48.00;;;;;;4970694;28;20197;-66
2023/04/04 10:41:52;;;;;;;1.60;1.50;;;19.90;48.00;;;;;;4973599;28;20597;-66
2023/04/04 10:44:28;;;;;;;1.75;1.60;;;19.90;48.00;;;;;;4972546;28;20189;-66
2023/04/04 10:46:57;;;;;;;1.60;1.48;;;19.90;48.00;;;;;;4976996;28;20189;-66
2023/04/04 10:49:24;;;;;;;1.40;1.30;;;19.90;48.00;;;;;;4955880;28;20213;-65
2023/04/04 10:51:55;;;;;;;1.52;1.08;;;19.90;48.00;;;;;;4953282;28;20681;-67
2023/04/04 10:54:21;;;;;;;1.58;1.48;;;19.90;48.00;;;;;;4979611;28;20203;-66
2023/04/04 10:56:48;;;;;;;1.50;1.40;;;19.90;47.90;;;;;;4952838;28;20194;-65
2023/04/04 10:59:18;;;;;;;1.58;1.48;;;19.90;48.00;;;;;;4970261;28;20197;-66
2023/04/04 11:01:57;;;;;;;1.50;1.40;;;19.90;48.00;;;;;;4953012;29;20715;-66
2023/04/04 11:04:36;;;;;;;1.42;1.33;;;19.90;48.00;;;;;;4954803;28;20198;-65
2023/04/04 11:07:18;;;;;;;1.33;1.23;;;19.90;47.80;;;;;;4973509;28;20189;-66
2023/04/04 11:09:59;;;;;;;1.55;1.45;;;19.90;48.00;;;;;;4978308;28;20645;-66
2023/04/04 11:12:33;;;;;;;2.22;1.67;;;19.90;48.00;;;;;;4971459;28;20209;-65
2023/04/04 11:15:02;;;;;;;1.90;1.65;;;19.90;48.00;;;;;;4972290;28;20571;-66
2023/04/04 11:17:55;;;;;;;1.23;1.20;;;19.90;48.00;;;;;;4955947;28;20207;-67
2023/04/04 11:20:29;;;;;;;1.50;1.40;;;19.90;47.90;;;;;;4966583;28;20229;-66
2023/04/04 11:23:13;;;;;;;1.30;1.20;;;19.90;48.00;;;;;;4968861;28;20233;-66
2023/04/04 11:25:54;;;;;;;2.00;1.70;;;19.90;47.90;;;;;;4969194;28;20178;-67
2023/04/04 11:28:33;;;;;;;2.15;1.40;;;19.90;47.90;;;;;;4970373;28;20185;-66
2023/04/04 11:31:17;;;;;;;1.70;1.45;;;19.90;47.90;;;;;;4971964;28;20213;-67
2023/04/04 11:34:06;;;;;;;2.28;1.60;;;19.90;47.80;;;;;;4966924;28;20336;-67
2023/04/04 11:36:34;;;;;;;1.52;1.27;;;19.90;47.80;;;;;;4964159;28;20277;-67
2023/04/04 11:39:26;;;;;;;1.52;1.30;;;19.90;47.80;;;;;;4971928;28;20193;-66
2023/04/04 11:41:54;;;;;;;1.55;1.45;;;19.90;47.90;;;;;;4973080;28;20260;-66
2023/04/04 11:44:22;;;;;;;1.55;1.40;;;19.90;47.80;;;;;;4970451;28;20194;-66
2023/04/04 11:46:55;;;;;;;1.83;1.52;;;19.90;48.00;;;;;;4971541;28;20188;-66
2023/04/04 11:49:28;;;;;;;1.58;1.45;;;19.90;47.90;;;;;;4954674;28;20205;-66
2023/04/04 11:51:55;;;;;;;2.70;1.50;;;19.90;47.90;;;;;;4971770;28;20229;-66
2023/04/04 11:54:20;;;;;;;1.73;1.42;;;19.90;47.90;;;;;;4972932;28;20185;-67
2023/04/04 11:56:46;;;;;;;1.52;1.42;;;19.90;47.90;;;;;;4952732;28;20250;-66
2023/04/04 11:59:18;;;;;;;1.65;1.55;;;19.90;48.00;;;;;;4969241;28;20197;-64
2023/04/04 12:01:44;;;;;;;9.48;1.80;;;20.00;48.50;;;;;;4971405;28;20308;-68
2023/04/04 12:04:10;;;;;;;6.70;1.58;;;20.10;49.40;;;;;;4952653;28;20222;-67
2023/04/04 12:06:37;;;;;;;5.43;1.83;;;20.10;49.10;;;;;;4979425;28;20628;-67
2023/04/04 12:09:05;;;;;;;3.38;1.52;;;20.10;49.20;;;;;;4980962;28;20254;-66
2023/04/04 12:11:34;;;;;;;4.80;1.90;;;20.00;49.10;;;;;;4975167;28;20304;-67
2023/04/04 12:14:00;;;;;;;2.40;1.83;;;20.00;49.10;;;;;;4975093;28;20676;-68
2023/04/04 12:16:27;;;;;;;2.03;1.30;;;19.90;48.80;;;;;;4958731;28;20193;-68
2023/04/04 12:18:56;;;;;;;1.70;1.60;;;19.90;48.90;;;;;;4975736;28;20334;-67
2023/04/04 12:21:23;;;;;;;3.60;1.60;;;20.00;48.90;;;;;;4975688;28;20241;-66
2023/04/04 12:23:48;;;;;;;1.83;1.50;;;19.90;48.70;;;;;;4981252;28;20178;-66
2023/04/04 12:26:16;;;;;;;2.50;1.55;;;19.90;48.70;;;;;;4975019;28;20200;-66
2023/04/04 12:28:44;;;;;;;3.05;1.60;;;19.90;48.70;;;;;;4970929;28;20273;-67
2023/04/04 12:31:12;;;;;;;1.63;1.35;;;19.90;48.70;;;;;;4975754;28;20312;-67
2023/04/04 12:33:40;;;;;;;2.88;1.48;;;19.90;48.60;;;;;;4976737;28;20275;-67
2023/04/04 12:36:11;;;;;;;2.40;1.27;;;19.90;48.60;;;;;;4974881;28;20189;-67
2023/04/04 12:38:57;;;;;;;1.77;1.27;;;19.90;48.50;;;;;;4955716;28;20191;-67
2023/04/04 12:41:22;;;;;;;1.40;1.30;;;19.90;48.60;;;;;;4974153;28;20653;-67
2023/04/04 12:43:48;;;;;;;2.78;1.60;;;19.90;48.70;;;;;;4958773;28;20189;-68
2023/04/04 12:46:14;;;;;;;1.65;1.48;;;19.90;48.60;;;;;;4974740;28;20204;-67
2023/04/04 12:48:40;;;;;;;2.13;1.30;;;19.90;48.60;;;;;;4958710;28;20256;-67
2023/04/04 12:51:07;;;;;;;1.35;1.20;;;19.90;48.60;;;;;;4958534;28;20217;-67
2023/04/04 12:53:34;;;;;;;2.08;1.35;;;19.90;48.60;;;;;;4958422;28;20186;-67
2023/04/04 12:56:03;;;;;;;2.25;1.55;;;19.90;48.50;;;;;;4965572;28;20239;-67